Nearby METAR Reports

 

KSJC - San Jose, California, USA
Distance from station: NE 14km
Updated: 17/06/2019 19:53
Partly cloudy
Partly cloudy
 Wind from NW
Wind: NW 9 km/h
Temperature: 22°C
Dew Point: 16°C
Humidity: 69%
Barometer: 1010.2 hPa
Clouds: Partly cloudy
Visibility: 16 km
Cloud details: Few Clouds 2134 m
Partly cloudy 3658 m
2019/06/18 02:53 KSJC 180253Z 31005KT 10SM FEW070 SCT120 22/16 A2983 RMK AO2 SLP102 T02220156 53009
KNUQ - Moffett Nas/Mtn, California, USA
Distance from station: N 14km
Updated: 17/06/2019 19:56
Clear
Clear
 Wind from NNW
Wind: NNW 11 km/h
Temperature: 21°C
Dew Point: 14°C
Humidity: 64%
Barometer: 1010.8 hPa
Clouds: Clear
Visibility: 16 km
2019/06/18 02:56 KNUQ 180256Z 34006KT 10SM CLR 21/14 A2985 RMK AO2 SLP110 T02060144 53009
 
KPAO - Palo Alto, California, USA
Distance from station: NNW 23km
Updated: 17/06/2019 19:47
Few Clouds
Few Clouds
 Wind from NNW
Wind: NNW 15 km/h
Temperature: 19°C
Dew Point: 14°C
Humidity: 73%
Barometer: 1010.8 hPa
Clouds: Few Clouds
Visibility: 16 km
Cloud details: Few Clouds 3658 m
2019/06/18 02:47 KPAO 180247Z 33008KT 10SM FEW120 19/14 A2985
KRHV - San Jose/Reid, California, USA
Distance from station: ENE 19km
Updated: 17/06/2019 19:50
Clear
Clear
 Wind from WNW
Wind: WNW 11 km/h
Temperature: 24°C
Dew Point: 14°C
Humidity: 54%
Barometer: 1010.5 hPa
Clouds: Clear
Visibility: 16 km
2019/06/18 02:50 KRHV 180250Z 30006KT 10SM SKC 24/14 A2984
 
KOAK - Oakland, California, USA
Distance from station: NNW 50km
Updated: 17/06/2019 19:53
Few Clouds
Few Clouds
 Wind from NW
Wind: NW 17 km/h
Temperature: 17°C
Dew Point: 12°C
Humidity: 73%
Barometer: 1011.2 hPa
Clouds: Few Clouds
Visibility: 16 km
Cloud details: Few Clouds 305 m
Few Clouds 4267 m
2019/06/18 02:53 KOAK 180253Z 31009KT 10SM FEW010 FEW140 17/12 A2986 RMK AO2 SLP109 T01720122 53008
KSQL - San Carlos Airpo, California, USA
Distance from station: NW 34km
Updated: 17/06/2019 19:51
Few Clouds
Few Clouds
 Wind from NNW
Wind: NNW 13 km/h
Temperature: 20°C
Dew Point: 13°C
Humidity: 64%
Barometer: 1010.8 hPa
Clouds: Few Clouds
Visibility: 16 km
Cloud details: Few Clouds 6096 m
2019/06/18 02:51 KSQL 180251Z 34007KT 10SM FEW200 20/13 A2985
 
KSFO - San Francisco, California, USA
Distance from station: NW 49km
Updated: 17/06/2019 19:56
Partly cloudy
Partly cloudy
 Wind from WNW
Wind: WNW 17 km/h
Temperature: 17°C
Dew Point: 12°C
Humidity: 73%
Barometer: 1010.5 hPa
Clouds: Partly cloudy
Visibility: 16 km
Cloud details: Few Clouds 244 m
Partly cloudy 6096 m
2019/06/18 02:56 KSFO 180256Z 29009KT 10SM FEW008 SCT200 17/12 A2984 RMK AO2 SLP105 T01670117 53008
KE16 - San Martin, California, USA
Distance from station: ESE 43km
Updated: 30/05/2019 12:30
NOT Current

 Wind from SE
Wind: SE 9 km/h
Temperature: 18°C
Dew Point: 11°C
Humidity: 64%
Barometer: 1014.6 hPa
2019/05/30 19:30 KE16 301930Z AUTO 13005KT 18/11 A2996 RMK AO2 PWINO PNO
 
KWVI - Watsonville, California, USA
Distance from station: SSE 44km
Updated: 17/06/2019 20:36
Partly cloudy
Partly cloudy
 Wind from W
Wind: W 7 km/h
Temperature: 13°C
Dew Point: 11°C
Humidity: 88%
Barometer: 1012.9 hPa
Clouds: Partly cloudy
Visibility: 16 km
Cloud details: Partly cloudy 213 m
2019/06/18 03:36 KWVI 180336Z AUTO 27004KT 10SM SCT007 13/11 A2991 RMK AO2 T01330111 $
KHAF - Half Moon Bay, California, USA
Distance from station: WNW 50km
Updated: 17/06/2019 20:40
Overcast
Overcast
 Wind from S
Wind: S 19 km/h
Temperature: 13°C
Dew Point: 12°C
Humidity: 94%
Barometer: 1012.9 hPa
Clouds: Overcast
Visibility: 11 km
Cloud details: Overcast 183 m
2019/06/18 03:40 KHAF 180340Z AUTO 17010KT 7SM OVC006 13/12 A2991 RMK AO2
 
KHWD - Hayward, California, USA
Distance from station: N 44km
Updated: 17/06/2019 19:54
Clear
Clear
 Wind from WNW
Wind: WNW 15 km/h
Temperature: 19°C
Dew Point: 12°C
Humidity: 64%
Barometer: 1010.5 hPa
Clouds: Clear
Visibility: 16 km
2019/06/18 02:54 KHWD 180254Z 30008KT 10SM CLR 19/12 A2984 RMK AO2 SLP114 T01890122 52008
KLVK - Livermore, California, USA
Distance from station: NNE 51km
Updated: 17/06/2019 19:53
Clear
Clear
 Wind from WNW
Wind: WNW 13 km/h
Temperature: 26°C
Dew Point: 13°C
Humidity: 45%
Barometer: 1009.8 hPa
Clouds: Clear
Visibility: 16 km
2019/06/18 02:53 KLVK 180253Z 29007KT 10SM CLR 26/13 A2982 RMK AO2 SLP093 T02560128 53011